Time;durP1;ratioP1;P1;durP2;ratioP2;P2;SDS_P1;SDS_P2;PMS_P1;PMS_P2;Temp;Humidity;BMP_temperature;BMP_pressure;BME280_temperature;BME280_humidity;BME280_pressure;Samples;Min_cycle;Max_cycle;Signal;HPM_P1;HPM_P2
2021/06/20 00:00:11;;;;;;;19.48;10.32;;;23.20;97.70;;;;;;5028085;28;20527;-72
2021/06/20 00:02:37;;;;;;;15.70;10.60;;;23.20;97.80;;;;;;5029738;28;20021;-72
2021/06/20 00:05:06;;;;;;;15.48;11.07;;;23.00;98.20;;;;;;5030705;28;20028;-71
2021/06/20 00:07:32;;;;;;;14.52;9.98;;;23.00;98.10;;;;;;5029929;28;20439;-71
2021/06/20 00:09:58;;;;;;;15.20;9.93;;;22.90;98.30;;;;;;5030394;28;20032;-71
2021/06/20 00:12:24;;;;;;;17.20;10.82;;;22.60;98.70;;;;;;5029821;28;20526;-71
2021/06/20 00:14:50;;;;;;;17.23;11.60;;;22.50;99.00;;;;;;5029619;28;20033;-71
2021/06/20 00:17:16;;;;;;;17.17;12.18;;;22.50;99.20;;;;;;5030813;28;20045;-71
2021/06/20 00:19:41;;;;;;;17.95;10.73;;;22.60;99.10;;;;;;5032355;28;20133;-71
2021/06/20 00:22:07;;;;;;;14.70;10.63;;;22.70;98.90;;;;;;5031643;28;20483;-72
2021/06/20 00:24:33;;;;;;;15.65;10.85;;;22.80;98.80;;;;;;5031959;28;20048;-72
2021/06/20 00:26:58;;;;;;;16.13;11.38;;;22.80;98.80;;;;;;5032009;28;20021;-72
2021/06/20 00:29:24;;;;;;;13.55;11.02;;;22.70;99.00;;;;;;5032049;28;20036;-71
2021/06/20 00:31:50;;;;;;;18.65;11.15;;;22.40;99.30;;;;;;5031499;28;20029;-71
2021/06/20 00:34:15;;;;;;;28.88;11.35;;;22.50;99.40;;;;;;5031632;28;20050;-71
2021/06/20 00:36:41;;;;;;;17.90;10.65;;;22.50;99.40;;;;;;5031472;28;20557;-71
2021/06/20 00:39:07;;;;;;;20.48;12.40;;;22.60;99.30;;;;;;5031535;28;20057;-71
2021/06/20 00:41:32;;;;;;;15.18;11.75;;;22.60;99.10;;;;;;5030278;28;20029;-71
2021/06/20 00:44:02;;;;;;;16.42;10.95;;;22.70;99.10;;;;;;5031766;28;20029;-71
2021/06/20 00:46:28;;;;;;;16.88;11.77;;;22.80;99.10;;;;;;5031369;28;20022;-71
2021/06/20 00:48:54;;;;;;;17.20;12.02;;;22.80;98.90;;;;;;5031622;28;20025;-72
2021/06/20 00:51:20;;;;;;;20.45;12.75;;;22.80;98.90;;;;;;5031102;28;20026;-71
2021/06/20 00:53:46;;;;;;;15.20;11.25;;;22.80;99.00;;;;;;5031867;28;20044;-71
2021/06/20 00:56:12;;;;;;;14.95;10.82;;;22.90;98.80;;;;;;5031390;28;20151;-71
2021/06/20 00:58:39;;;;;;;15.30;10.27;;;22.70;98.90;;;;;;5029789;28;20021;-72
2021/06/20 01:01:05;;;;;;;13.13;10.55;;;22.70;98.80;;;;;;5020140;28;20026;-71
2021/06/20 01:03:31;;;;;;;16.13;11.30;;;22.70;98.60;;;;;;5030591;28;20048;-71
2021/06/20 01:05:57;;;;;;;14.73;11.90;;;22.80;98.60;;;;;;5033694;28;20053;-71
2021/06/20 01:08:22;;;;;;;21.92;12.13;;;22.70;98.80;;;;;;5033410;28;20130;-71
2021/06/20 01:10:48;;;;;;;17.02;11.63;;;22.70;99.00;;;;;;5032651;28;20091;-71
2021/06/20 01:13:16;;;;;;;17.48;10.60;;;22.80;98.80;;;;;;5033568;28;20080;-72
2021/06/20 01:15:44;;;;;;;17.75;11.27;;;22.90;98.60;;;;;;5033025;28;20044;-72
2021/06/20 01:18:10;;;;;;;18.95;11.98;;;22.90;98.70;;;;;;5034858;28;20022;-71
2021/06/20 01:20:37;;;;;;;16.85;11.18;;;22.80;98.90;;;;;;5035025;28;20021;-71
2021/06/20 01:23:03;;;;;;;15.23;11.48;;;22.80;98.90;;;;;;5035025;28;20104;-71
2021/06/20 01:25:30;;;;;;;16.50;10.43;;;22.90;98.70;;;;;;5035240;28;20036;-71
2021/06/20 01:28:00;;;;;;;15.60;10.35;;;22.70;98.40;;;;;;5035570;28;20030;-71
2021/06/20 01:30:28;;;;;;;12.45;10.25;;;22.70;98.10;;;;;;5034516;28;20021;-71
2021/06/20 01:32:55;;;;;;;15.63;10.63;;;22.70;98.40;;;;;;5033694;28;20030;-71
2021/06/20 01:35:21;;;;;;;19.40;11.18;;;22.60;98.60;;;;;;5034475;28;20053;-71
2021/06/20 01:37:47;;;;;;;16.63;11.27;;;22.70;98.70;;;;;;5034986;28;20038;-72
2021/06/20 01:40:15;;;;;;;15.30;10.18;;;22.70;98.70;;;;;;5034598;28;20132;-71
2021/06/20 01:42:42;;;;;;;15.90;9.98;;;22.80;98.80;;;;;;5044655;28;20024;-71
2021/06/20 01:45:09;;;;;;;15.07;10.82;;;22.70;98.70;;;;;;5047281;28;20017;-71
2021/06/20 01:47:36;;;;;;;15.07;11.52;;;22.70;98.90;;;;;;5034894;28;20040;-71
2021/06/20 01:50:08;;;;;;;14.82;10.48;;;22.60;99.00;;;;;;5034053;28;20022;-72
2021/06/20 01:52:34;;;;;;;16.23;10.63;;;22.60;99.20;;;;;;5035053;28;20026;-72
2021/06/20 01:55:00;;;;;;;13.35;10.00;;;22.40;99.30;;;;;;5030173;28;20029;-71
2021/06/20 01:57:32;;;;;;;14.40;10.93;;;22.30;99.40;;;;;;5014992;28;20037;-71
2021/06/20 02:00:00;;;;;;;14.98;10.52;;;22.40;99.50;;;;;;5015008;28;20105;-72
2021/06/20 02:02:27;;;;;;;18.05;10.55;;;22.40;99.30;;;;;;5033553;28;20029;-71
2021/06/20 02:04:55;;;;;;;14.48;11.02;;;22.40;99.30;;;;;;5032468;28;20022;-71
2021/06/20 02:07:22;;;;;;;13.02;10.05;;;22.40;99.30;;;;;;5032832;28;20030;-71
2021/06/20 02:09:48;;;;;;;15.65;10.73;;;22.40;99.10;;;;;;5032427;28;20037;-71
2021/06/20 02:12:15;;;;;;;14.73;10.15;;;22.40;99.00;;;;;;5032006;28;20044;-71
2021/06/20 02:14:41;;;;;;;15.52;9.77;;;22.50;98.90;;;;;;5031329;28;20033;-72
2021/06/20 02:17:23;;;;;;;15.25;10.48;;;22.50;99.10;;;;;;5031918;28;20438;-71
2021/06/20 02:19:51;;;;;;;11.68;10.13;;;22.50;99.20;;;;;;5033778;28;20030;-71
2021/06/20 02:22:17;;;;;;;12.82;9.82;;;22.40;99.10;;;;;;5032761;28;20052;-71
2021/06/20 02:24:43;;;;;;;15.25;10.70;;;22.40;99.00;;;;;;5033617;28;20483;-71
2021/06/20 02:27:10;;;;;;;16.52;9.98;;;22.40;99.10;;;;;;5033841;28;20548;-71
2021/06/20 02:29:37;;;;;;;15.05;10.25;;;22.40;99.10;;;;;;5034367;28;20373;-72
2021/06/20 02:32:03;;;;;;;15.65;10.70;;;22.40;98.90;;;;;;5029054;28;20484;-71
2021/06/20 02:34:29;;;;;;;17.02;10.95;;;22.40;99.00;;;;;;5014001;28;20056;-71
2021/06/20 02:36:54;;;;;;;20.02;10.15;;;22.50;98.80;;;;;;5022008;28;20037;-71
2021/06/20 02:39:20;;;;;;;14.48;10.30;;;22.70;98.70;;;;;;5034132;28;20021;-71
2021/06/20 02:41:50;;;;;;;12.93;10.32;;;22.70;98.40;;;;;;5033181;28;20025;-71
2021/06/20 02:44:16;;;;;;;15.35;9.63;;;22.80;98.60;;;;;;5033898;28;20032;-71
2021/06/20 02:46:41;;;;;;;15.10;10.20;;;22.70;98.60;;;;;;5033680;28;20494;-71
2021/06/20 02:49:07;;;;;;;17.33;9.25;;;22.50;99.00;;;;;;5033529;28;20018;-72
2021/06/20 02:51:33;;;;;;;29.00;10.00;;;22.40;98.70;;;;;;5033346;28;20028;-71
2021/06/20 02:53:58;;;;;;;13.82;10.35;;;22.50;98.70;;;;;;5033621;28;20574;-71
2021/06/20 02:56:24;;;;;;;11.73;9.88;;;22.50;98.80;;;;;;5033147;28;20124;-72
2021/06/20 02:58:50;;;;;;;13.90;9.50;;;22.40;98.90;;;;;;5033857;28;20029;-72
2021/06/20 03:01:16;;;;;;;14.70;10.60;;;22.60;98.60;;;;;;5023210;28;20029;-72
2021/06/20 03:03:41;;;;;;;16.23;11.18;;;22.50;99.10;;;;;;5024460;28;20172;-71
2021/06/20 03:06:07;;;;;;;13.00;10.23;;;22.40;99.30;;;;;;5024582;28;20029;-71
2021/06/20 03:08:33;;;;;;;12.05;9.90;;;22.50;99.20;;;;;;5024539;28;20041;-71
2021/06/20 03:10:59;;;;;;;18.98;10.60;;;22.40;99.20;;;;;;5024914;28;20100;-71
2021/06/20 03:13:25;;;;;;;12.88;10.80;;;22.40;99.30;;;;;;5023462;28;20033;-72
2021/06/20 03:15:51;;;;;;;13.95;10.32;;;22.40;99.40;;;;;;5023651;28;20107;-72
2021/06/20 03:18:16;;;;;;;18.42;10.90;;;22.30;99.50;;;;;;5023590;28;20045;-71
2021/06/20 03:20:42;;;;;;;12.98;10.13;;;22.30;99.50;;;;;;5025397;28;20021;-71
2021/06/20 03:23:10;;;;;;;15.75;10.30;;;22.30;99.50;;;;;;5024322;28;20052;-72
2021/06/20 03:25:38;;;;;;;14.75;10.15;;;22.20;99.30;;;;;;5025125;28;20021;-71
2021/06/20 03:28:04;;;;;;;11.65;9.20;;;22.10;99.20;;;;;;5024237;28;20045;-71
2021/06/20 03:30:29;;;;;;;17.20;10.18;;;22.20;99.20;;;;;;5025335;28;20032;-71
2021/06/20 03:32:55;;;;;;;16.45;10.93;;;22.30;99.30;;;;;;5024504;28;20376;-71
2021/06/20 03:35:21;;;;;;;15.02;10.68;;;22.40;99.20;;;;;;5023826;28;20045;-71
2021/06/20 03:37:46;;;;;;;20.50;11.25;;;22.40;99.30;;;;;;5024879;28;20041;-71
2021/06/20 03:40:12;;;;;;;16.38;11.65;;;22.40;99.50;;;;;;5025395;28;20436;-71
2021/06/20 03:42:38;;;;;;;11.90;10.30;;;22.20;99.60;;;;;;5024753;28;20040;-71
2021/06/20 03:45:07;;;;;;;15.85;8.98;;;22.20;99.50;;;;;;5023140;28;20026;-71
2021/06/20 03:47:34;;;;;;;16.38;9.80;;;22.20;99.60;;;;;;5025116;28;20068;-72
2021/06/20 03:49:59;;;;;;;12.02;9.38;;;22.10;99.60;;;;;;5025106;28;20601;-71
2021/06/20 03:52:25;;;;;;;12.90;9.88;;;22.10;99.60;;;;;;5024937;28;20029;-71
2021/06/20 03:54:51;;;;;;;11.75;9.82;;;22.10;99.50;;;;;;5023978;28;20053;-71
2021/06/20 03:57:23;;;;;;;12.77;9.95;;;22.30;99.50;;;;;;5024184;28;20041;-71
2021/06/20 03:59:49;;;;;;;13.00;9.63;;;22.40;99.00;;;;;;5025258;28;20029;-71
2021/06/20 04:02:15;;;;;;;14.35;9.80;;;22.30;99.00;;;;;;5021929;28;20084;-71
2021/06/20 04:04:42;;;;;;;13.15;8.35;;;22.30;98.80;;;;;;5024043;28;20017;-71
2021/06/20 04:07:11;;;;;;;12.60;9.75;;;22.20;98.80;;;;;;5022797;28;20049;-72
2021/06/20 04:09:40;;;;;;;12.65;9.40;;;22.10;99.20;;;;;;5023139;28;20071;-71
2021/06/20 04:12:06;;;;;;;14.27;8.90;;;22.20;99.30;;;;;;5022713;28;20646;-71
2021/06/20 04:14:33;;;;;;;13.45;8.68;;;22.20;99.00;;;;;;5023163;28;20032;-72
2021/06/20 04:16:59;;;;;;;17.45;8.75;;;22.20;99.00;;;;;;5022319;28;20072;-71
2021/06/20 04:19:24;;;;;;;16.00;10.20;;;22.20;98.70;;;;;;5022379;28;20033;-71
2021/06/20 04:21:50;;;;;;;14.90;9.60;;;22.20;99.20;;;;;;5024297;28;20029;-71
2021/06/20 04:24:16;;;;;;;10.95;9.07;;;22.10;99.30;;;;;;5024471;28;20057;-71
2021/06/20 04:26:42;;;;;;;15.65;9.48;;;22.10;99.10;;;;;;5023999;28;20022;-71
2021/06/20 04:29:09;;;;;;;13.40;9.93;;;22.00;99.20;;;;;;5023886;28;20401;-71
2021/06/20 04:31:35;;;;;;;17.63;9.77;;;21.80;99.70;;;;;;5024464;28;20021;-72
2021/06/20 04:34:01;;;;;;;16.38;9.85;;;21.90;99.80;;;;;;5024587;28;20052;-71
2021/06/20 04:36:27;;;;;;;14.27;9.80;;;22.00;99.70;;;;;;5023801;28;20087;-71
2021/06/20 04:38:53;;;;;;;11.93;9.60;;;21.90;99.90;;;;;;5023359;28;20030;-72
2021/06/20 04:41:20;;;;;;;16.90;9.52;;;22.00;99.80;;;;;;5023728;28;20030;-71
2021/06/20 04:46:35;;;;;;;17.58;9.50;;;22.20;99.30;;;;;;5023672;28;20033;-72
2021/06/20 04:49:07;;;;;;;12.95;8.70;;;22.20;99.20;;;;;;5024240;28;20021;-71
2021/06/20 04:51:39;;;;;;;15.40;9.95;;;22.30;99.20;;;;;;5007035;28;20034;-71
2021/06/20 04:54:06;;;;;;;14.52;9.25;;;22.30;99.20;;;;;;5022719;28;20025;-72
2021/06/20 04:56:32;;;;;;;16.90;10.02;;;22.20;99.60;;;;;;5024410;28;20033;-71
2021/06/20 04:58:58;;;;;;;11.57;8.95;;;22.10;99.90;;;;;;5022164;28;20026;-72
2021/06/20 05:01:25;;;;;;;14.25;8.80;;;22.20;99.90;;;;;;5039696;28;20158;-71
2021/06/20 05:03:52;;;;;;;15.15;9.40;;;22.30;99.60;;;;;;5008880;28;20483;-71
2021/06/20 05:06:18;;;;;;;13.70;9.27;;;22.40;99.90;;;;;;5022673;28;20104;-71
2021/06/20 05:08:44;;;;;;;14.43;10.23;;;22.30;99.60;;;;;;5022099;28;20120;-71
2021/06/20 05:11:10;;;;;;;13.07;9.32;;;22.50;99.90;;;;;;5022107;28;20056;-72
2021/06/20 05:13:36;;;;;;;11.52;8.60;;;22.50;99.90;;;;;;5022090;28;20025;-71
2021/06/20 05:16:01;;;;;;;13.10;9.50;;;22.60;99.90;;;;;;5022231;28;20049;-71
2021/06/20 05:18:27;;;;;;;16.85;10.32;;;22.60;99.90;;;;;;5022064;28;20128;-71
2021/06/20 05:20:53;;;;;;;14.52;10.35;;;22.50;99.90;;;;;;5022238;28;20637;-71
2021/06/20 05:23:20;;;;;;;12.77;9.60;;;22.50;99.70;;;;;;5023970;28;20106;-71
2021/06/20 05:25:45;;;;;;;15.95;9.90;;;22.30;99.60;;;;;;5024037;28;20553;-71
2021/06/20 05:28:11;;;;;;;16.30;9.88;;;22.50;99.40;;;;;;5023256;28;20037;-71
2021/06/20 05:30:37;;;;;;;16.63;10.60;;;22.60;98.80;;;;;;5023587;28;20049;-72
2021/06/20 05:33:02;;;;;;;14.27;10.05;;;22.70;98.80;;;;;;5023474;28;20029;-71
2021/06/20 05:35:28;;;;;;;11.23;9.32;;;22.80;99.90;;;;;;5023263;28;20038;-72
2021/06/20 05:37:54;;;;;;;15.95;10.35;;;22.70;99.80;;;;;;5023849;28;20157;-71
2021/06/20 05:40:20;;;;;;;13.13;9.93;;;22.80;99.20;;;;;;5023514;28;20679;-71
2021/06/20 05:42:45;;;;;;;14.85;10.55;;;23.00;99.80;;;;;;5023172;28;20046;-71
2021/06/20 05:45:12;;;;;;;16.10;10.77;;;23.00;99.50;;;;;;5023394;28;20100;-71
2021/06/20 05:47:38;;;;;;;15.63;9.90;;;23.00;99.60;;;;;;5024054;28;20026;-71
2021/06/20 05:50:04;;;;;;;14.27;10.52;;;23.00;99.20;;;;;;5025511;28;20033;-71
2021/06/20 05:52:30;;;;;;;13.85;10.10;;;23.10;98.70;;;;;;5026945;28;20025;-71
2021/06/20 05:54:56;;;;;;;16.33;10.93;;;23.10;99.60;;;;;;5026941;28;20056;-71
2021/06/20 05:57:22;;;;;;;16.00;11.10;;;23.00;99.70;;;;;;5027059;28;20511;-71
2021/06/20 05:59:48;;;;;;;14.50;10.02;;;23.10;99.90;;;;;;5027565;28;20025;-71
2021/06/20 06:02:14;;;;;;;12.65;10.38;;;23.10;99.90;;;;;;5027281;28;20033;-73
2021/06/20 06:04:43;;;;;;;14.18;9.45;;;23.00;99.90;;;;;;5006950;28;20022;-71
2021/06/20 06:07:09;;;;;;;12.50;9.68;;;23.10;99.80;;;;;;5008933;28;20030;-72
2021/06/20 06:09:35;;;;;;;15.85;10.05;;;23.10;99.50;;;;;;5025357;28;20116;-71
2021/06/20 06:12:05;;;;;;;14.90;10.13;;;23.20;99.90;;;;;;5024604;28;20022;-71
2021/06/20 06:14:31;;;;;;;11.13;9.88;;;23.30;99.90;;;;;;5025722;28;20090;-71
2021/06/20 06:16:56;;;;;;;16.52;10.25;;;23.50;99.90;;;;;;5024807;28;20041;-71
2021/06/20 06:19:23;;;;;;;14.35;10.40;;;23.60;99.70;;;;;;5025136;28;20724;-71
2021/06/20 06:21:48;;;;;;;11.90;9.88;;;23.70;99.00;;;;;;5024840;28;20032;-71
2021/06/20 06:24:14;;;;;;;13.48;10.13;;;23.70;98.80;;;;;;5028673;28;20090;-73
2021/06/20 06:26:40;;;;;;;18.30;11.38;;;23.70;98.60;;;;;;5045851;28;20423;-74
2021/06/20 06:29:07;;;;;;;18.08;11.30;;;23.70;98.60;;;;;;5050097;28;20056;-75
2021/06/20 06:31:35;;;;;;;17.27;11.18;;;23.80;99.00;;;;;;5034609;28;20033;-75
2021/06/20 06:34:02;;;;;;;19.80;11.45;;;23.90;99.00;;;;;;5032140;28;20037;-75
2021/06/20 06:36:28;;;;;;;16.38;11.60;;;24.00;98.80;;;;;;5027800;28;20037;-74
2021/06/20 06:38:53;;;;;;;15.80;10.55;;;24.20;98.60;;;;;;5046607;28;20029;-75
2021/06/20 06:41:19;;;;;;;14.32;10.43;;;24.30;98.60;;;;;;5018051;28;20040;-76
2021/06/20 06:43:46;;;;;;;14.30;11.23;;;24.20;98.50;;;;;;5046430;28;20390;-76
2021/06/20 06:46:11;;;;;;;20.73;11.05;;;24.20;98.50;;;;;;5039517;28;20037;-76
2021/06/20 06:48:37;;;;;;;17.35;10.95;;;24.10;98.50;;;;;;5026171;28;20680;-75
2021/06/20 06:51:04;;;;;;;16.05;11.07;;;24.10;98.50;;;;;;5030840;28;20120;-77
2021/06/20 06:53:30;;;;;;;17.13;11.45;;;24.10;98.30;;;;;;5025882;28;20021;-75
2021/06/20 06:55:57;;;;;;;17.75;10.90;;;24.20;98.00;;;;;;5025322;28;20107;-76
2021/06/20 06:58:23;;;;;;;15.57;11.27;;;24.10;98.00;;;;;;5015263;28;20026;-76
2021/06/20 07:00:48;;;;;;;15.45;10.63;;;24.30;98.10;;;;;;5026305;28;20025;-76
2021/06/20 07:03:14;;;;;;;15.05;11.75;;;24.50;98.40;;;;;;5025435;28;20033;-76
2021/06/20 07:05:40;;;;;;;16.30;10.68;;;24.50;98.40;;;;;;5012647;28;20026;-76
2021/06/20 07:08:06;;;;;;;16.23;10.48;;;24.70;98.10;;;;;;5036146;28;20032;-77
2021/06/20 07:10:32;;;;;;;16.67;12.18;;;24.90;97.80;;;;;;5029346;28;20029;-76
2021/06/20 07:12:58;;;;;;;24.08;11.27;;;24.90;97.30;;;;;;5022521;28;20029;-76
2021/06/20 07:15:25;;;;;;;15.60;10.75;;;24.70;97.20;;;;;;5033719;28;20036;-77
2021/06/20 07:17:51;;;;;;;12.90;10.55;;;24.90;97.10;;;;;;5044384;28;20060;-76
2021/06/20 07:20:18;;;;;;;13.82;10.82;;;25.00;96.90;;;;;;5045291;28;20032;-76
2021/06/20 07:22:46;;;;;;;14.98;10.40;;;25.10;97.10;;;;;;5030115;28;20033;-76
2021/06/20 07:25:14;;;;;;;15.32;9.50;;;25.00;97.00;;;;;;5021246;28;20021;-76
2021/06/20 07:27:40;;;;;;;14.27;10.82;;;25.30;96.90;;;;;;5013571;28;20064;-77
2021/06/20 07:30:09;;;;;;;17.10;10.68;;;25.50;97.00;;;;;;5004931;28;20056;-75
2021/06/20 07:32:35;;;;;;;16.30;10.65;;;26.10;96.80;;;;;;5015793;28;20077;-74
2021/06/20 07:35:01;;;;;;;16.67;11.15;;;27.00;95.70;;;;;;5011187;28;20404;-73
2021/06/20 07:37:27;;;;;;;15.95;10.45;;;27.20;95.30;;;;;;5021683;28;20040;-73
2021/06/20 07:39:53;;;;;;;16.10;10.90;;;27.10;94.70;;;;;;5016119;28;20025;-73
2021/06/20 07:42:18;;;;;;;17.80;11.05;;;26.60;95.30;;;;;;5014981;28;20065;-73
2021/06/20 07:44:44;;;;;;;18.40;11.57;;;26.50;96.30;;;;;;5023434;28;20065;-73
2021/06/20 07:47:10;;;;;;;14.60;11.90;;;26.80;95.90;;;;;;5002384;28;20034;-74
2021/06/20 07:49:36;;;;;;;15.05;10.77;;;26.70;95.60;;;;;;4993164;28;20468;-73
2021/06/20 07:52:01;;;;;;;16.77;10.57;;;26.50;95.70;;;;;;4993978;28;20084;-73
2021/06/20 07:54:27;;;;;;;19.80;12.07;;;26.40;96.00;;;;;;4996355;28;20029;-72
2021/06/20 07:56:53;;;;;;;18.63;11.88;;;26.40;96.00;;;;;;4991573;28;20073;-74
2021/06/20 07:59:18;;;;;;;18.10;11.35;;;26.20;95.40;;;;;;4991203;28;20021;-74
2021/06/20 08:01:44;;;;;;;15.52;11.05;;;26.20;95.90;;;;;;4993378;28;20038;-74
2021/06/20 08:04:10;;;;;;;16.95;11.77;;;26.70;95.20;;;;;;4990855;28;20116;-73
2021/06/20 08:06:36;;;;;;;16.73;11.57;;;26.90;94.70;;;;;;4992754;28;20171;-73
2021/06/20 08:09:02;;;;;;;21.60;11.50;;;27.20;94.70;;;;;;4990839;28;20115;-73
2021/06/20 08:11:28;;;;;;;19.98;9.35;;;27.30;94.50;;;;;;4989867;28;20041;-73
2021/06/20 08:13:57;;;;;;;15.82;10.57;;;27.30;94.10;;;;;;4992986;28;20552;-72
2021/06/20 08:16:23;;;;;;;13.15;10.73;;;27.70;93.90;;;;;;4990364;28;20038;-73
2021/06/20 08:18:48;;;;;;;22.13;10.38;;;27.80;93.40;;;;;;5024411;28;20029;-72
2021/06/20 08:21:14;;;;;;;14.90;10.43;;;27.80;93.50;;;;;;5018245;28;20033;-72
2021/06/20 08:23:40;;;;;;;20.58;10.88;;;27.70;93.50;;;;;;5009572;28;20504;-73
2021/06/20 08:26:06;;;;;;;16.70;10.27;;;27.50;93.20;;;;;;5011666;28;20034;-73
2021/06/20 08:28:33;;;;;;;15.88;10.82;;;27.40;93.80;;;;;;5015179;28;20049;-73
2021/06/20 08:30:59;;;;;;;17.40;10.50;;;27.10;93.40;;;;;;5024249;28;20047;-73
2021/06/20 08:33:25;;;;;;;15.80;11.25;;;26.90;94.10;;;;;;5016361;28;20917;-72
2021/06/20 08:35:50;;;;;;;18.88;10.38;;;26.90;93.50;;;;;;5018350;28;20045;-72
2021/06/20 08:38:16;;;;;;;18.58;10.10;;;26.90;93.40;;;;;;5005935;28;20523;-72
2021/06/20 08:40:43;;;;;;;18.10;10.50;;;26.90;93.70;;;;;;5020435;28;20044;-73
2021/06/20 08:43:10;;;;;;;17.10;11.48;;;26.90;93.50;;;;;;5024371;28;20021;-72
2021/06/20 08:45:37;;;;;;;18.98;11.45;;;26.80;93.40;;;;;;5010939;28;20030;-72
2021/06/20 08:48:03;;;;;;;22.67;11.95;;;26.80;93.50;;;;;;5014653;28;20017;-72
2021/06/20 08:50:28;;;;;;;17.52;10.85;;;26.70;93.70;;;;;;5024979;28;20521;-73
2021/06/20 08:52:55;;;;;;;18.98;10.85;;;26.70;93.20;;;;;;5010508;28;20036;-72
2021/06/20 08:55:22;;;;;;;16.25;11.25;;;26.70;94.00;;;;;;5004670;28;20034;-72
2021/06/20 08:57:48;;;;;;;19.50;11.10;;;26.80;93.70;;;;;;5007419;28;20137;-73
2021/06/20 09:00:16;;;;;;;16.73;11.18;;;26.80;93.40;;;;;;5022159;28;20032;-72
2021/06/20 09:02:55;;;;;;;21.65;12.85;;;26.80;94.00;;;;;;5011596;28;20034;-72
2021/06/20 09:05:21;;;;;;;18.90;10.48;;;26.80;93.90;;;;;;5023907;28;20634;-73
2021/06/20 09:07:46;;;;;;;15.48;11.00;;;26.70;93.30;;;;;;5020695;28;20029;-73
2021/06/20 09:10:14;;;;;;;17.50;10.85;;;26.70;93.80;;;;;;5007620;28;20061;-72
2021/06/20 09:12:56;;;;;;;17.95;12.25;;;26.70;94.20;;;;;;5012815;28;20029;-72
2021/06/20 09:15:25;;;;;;;18.02;10.80;;;26.70;93.80;;;;;;5003521;28;20129;-73
2021/06/20 09:17:58;;;;;;;19.02;11.60;;;26.80;93.60;;;;;;5021516;28;20527;-72
2021/06/20 09:20:36;;;;;;;19.60;11.18;;;26.80;94.00;;;;;;5014591;28;20045;-72
2021/06/20 09:23:07;;;;;;;17.48;10.88;;;26.90;93.80;;;;;;5021511;28;20694;-73
2021/06/20 09:25:33;;;;;;;16.98;11.32;;;26.90;93.90;;;;;;5021067;28;20021;-73
2021/06/20 09:28:01;;;;;;;17.23;11.50;;;27.20;94.00;;;;;;5018256;28;20510;-72
2021/06/20 09:30:30;;;;;;;15.93;10.82;;;27.30;93.90;;;;;;5025152;28;20029;-73
2021/06/20 09:33:05;;;;;;;18.92;10.98;;;27.50;93.30;;;;;;5014803;28;20124;-72
2021/06/20 09:35:53;;;;;;;16.42;11.23;;;27.60;93.40;;;;;;5013035;28;20480;-72
2021/06/20 09:38:24;;;;;;;19.00;11.73;;;27.90;93.70;;;;;;5021798;28;20030;-73
2021/06/20 09:41:10;;;;;;;14.48;9.77;;;28.40;93.30;;;;;;5014075;28;20049;-73
2021/06/20 09:43:39;;;;;;;15.45;10.07;;;28.60;92.40;;;;;;5027996;28;20033;-72
2021/06/20 09:46:09;;;;;;;15.68;10.13;;;28.70;90.80;;;;;;5026642;28;20033;-73
2021/06/20 09:48:36;;;;;;;17.60;11.77;;;28.50;91.60;;;;;;5020968;28;20079;-73
2021/06/20 09:51:30;;;;;;;16.40;10.20;;;28.40;91.90;;;;;;5025700;28;20018;-73
2021/06/20 09:53:56;;;;;;;14.95;10.63;;;28.30;92.20;;;;;;5006521;28;20483;-73
2021/06/20 09:56:24;;;;;;;28.05;11.38;;;28.40;92.00;;;;;;5008290;28;20522;-73
2021/06/20 09:59:03;;;;;;;18.60;11.63;;;28.50;92.30;;;;;;5018272;28;20057;-73
2021/06/20 10:01:32;;;;;;;18.75;12.45;;;28.60;92.40;;;;;;5019322;28;20104;-72
2021/06/20 10:03:58;;;;;;;16.58;10.25;;;28.90;91.80;;;;;;5026330;28;20026;-73
2021/06/20 10:06:25;;;;;;;13.75;11.15;;;29.00;91.50;;;;;;5023762;28;20110;-73
2021/06/20 10:08:50;;;;;;;14.88;10.02;;;28.90;91.30;;;;;;5007282;28;20413;-73
2021/06/20 10:11:17;;;;;;;17.35;11.38;;;28.90;92.00;;;;;;5016168;28;20095;-72
2021/06/20 10:13:44;;;;;;;14.55;11.45;;;29.00;91.30;;;;;;5024780;28;20026;-73
2021/06/20 10:16:25;;;;;;;16.42;10.70;;;29.10;91.60;;;;;;5020084;28;20100;-73
2021/06/20 10:19:02;;;;;;;16.20;9.63;;;29.50;90.90;;;;;;5017703;28;20026;-72
2021/06/20 10:21:42;;;;;;;19.65;11.07;;;29.50;90.40;;;;;;5022161;28;20375;-73
2021/06/20 10:24:16;;;;;;;13.75;10.50;;;29.50;91.20;;;;;;5025617;28;20037;-73
2021/06/20 10:27:01;;;;;;;19.70;11.23;;;29.60;91.00;;;;;;5007829;28;20045;-73
2021/06/20 10:29:31;;;;;;;18.75;10.65;;;29.30;91.30;;;;;;5020421;28;20448;-73
2021/06/20 10:31:59;;;;;;;16.05;10.77;;;29.40;91.30;;;;;;5025658;28;20033;-72
2021/06/20 10:34:31;;;;;;;14.95;10.45;;;29.70;91.30;;;;;;5024705;28;20065;-73
2021/06/20 10:37:04;;;;;;;21.92;10.75;;;29.40;91.10;;;;;;5020513;28;20091;-73
2021/06/20 10:39:30;;;;;;;;;;;29.60;90.90;;;;;;5025399;28;20030;-73
2021/06/20 10:42:10;;;;;;;15.73;11.80;;;29.50;90.80;;;;;;5025772;28;19958;-73
2021/06/20 10:44:52;;;;;;;18.38;10.95;;;29.50;90.90;;;;;;5026251;28;20098;-73
2021/06/20 10:47:41;;;;;;;15.25;10.15;;;29.10;90.40;;;;;;5018225;28;20423;-73
2021/06/20 10:50:13;;;;;;;17.58;9.70;;;29.00;91.10;;;;;;5026576;28;20045;-73
2021/06/20 10:52:40;;;;;;;15.80;10.98;;;29.40;90.90;;;;;;5023663;28;20037;-73
2021/06/20 10:55:17;;;;;;;19.27;15.55;;;30.10;91.40;;;;;;5013820;28;20033;-74
2021/06/20 10:57:55;;;;;;;22.67;18.13;;;30.30;90.80;;;;;;5020590;28;20541;-74
2021/06/20 11:00:32;;;;;;;27.15;12.10;;;30.40;90.50;;;;;;5024165;28;20158;-74
2021/06/20 11:03:30;;;;;;;19.48;11.88;;;30.30;90.00;;;;;;5016612;28;20465;-74
2021/06/20 11:06:17;;;;;;;15.73;12.50;;;29.90;90.10;;;;;;5016383;28;20115;-74
2021/06/20 11:08:57;;;;;;;14.68;10.63;;;30.00;90.50;;;;;;5010025;28;20038;-74
2021/06/20 11:11:24;;;;;;;18.55;10.48;;;29.90;90.30;;;;;;5024251;28;20057;-73
2021/06/20 11:13:56;;;;;;;19.75;10.77;;;29.50;90.70;;;;;;5017016;28;20036;-74
2021/06/20 11:16:32;;;;;;;19.58;10.27;;;29.70;90.70;;;;;;5022442;28;20041;-74
2021/06/20 11:19:08;;;;;;;12.30;9.88;;;29.90;90.70;;;;;;5006441;28;20487;-73
2021/06/20 11:21:50;;;;;;;14.95;9.32;;;30.00;90.20;;;;;;5005415;28;20061;-73
2021/06/20 11:24:29;;;;;;;48.10;12.20;;;30.00;90.30;;;;;;5016364;28;20072;-74
2021/06/20 11:26:57;;;;;;;28.52;10.32;;;30.40;90.60;;;;;;5013386;28;20026;-73
2021/06/20 11:29:23;;;;;;;17.90;10.75;;;30.70;90.20;;;;;;5020064;28;20041;-73
2021/06/20 11:31:51;;;;;;;13.52;9.55;;;30.70;90.10;;;;;;5019247;28;20026;-73
2021/06/20 11:34:18;;;;;;;13.00;8.25;;;30.60;89.10;;;;;;5017448;28;20171;-73
2021/06/20 11:36:45;;;;;;;41.15;28.73;;;30.90;89.30;;;;;;5026670;28;20418;-73
2021/06/20 11:39:12;;;;;;;34.45;26.17;;;31.00;89.80;;;;;;5009551;28;20022;-73
2021/06/20 11:41:43;;;;;;;14.10;10.02;;;31.00;90.00;;;;;;5020616;28;20039;-73
2021/06/20 11:44:09;;;;;;;13.90;10.15;;;30.60;88.80;;;;;;5023654;28;20028;-73
2021/06/20 11:46:36;;;;;;;26.95;14.52;;;30.20;88.80;;;;;;5023970;28;20032;-73
2021/06/20 11:49:07;;;;;;;15.43;9.43;;;30.10;90.40;;;;;;5025516;28;20025;-73
2021/06/20 11:51:35;;;;;;;19.17;13.43;;;30.20;89.60;;;;;;5018226;28;20029;-73
2021/06/20 11:54:18;;;;;;;18.58;10.10;;;30.60;90.00;;;;;;5025007;28;20048;-74
2021/06/20 11:56:50;;;;;;;16.40;9.05;;;30.50;88.10;;;;;;5024078;28;20545;-74
2021/06/20 11:59:34;;;;;;;20.17;9.07;;;30.70;87.90;;;;;;5021792;28;20120;-74
2021/06/20 12:02:01;;;;;;;13.18;9.02;;;31.20;88.90;;;;;;5024798;28;20057;-73
2021/06/20 12:04:30;;;;;;;18.30;9.23;;;31.50;89.70;;;;;;5024122;28;20514;-74
2021/06/20 12:06:56;;;;;;;15.25;9.40;;;31.60;88.10;;;;;;5018324;28;20032;-73
2021/06/20 12:09:23;;;;;;;13.68;9.48;;;31.40;87.80;;;;;;5018241;28;20059;-73
2021/06/20 12:11:58;;;;;;;13.20;8.70;;;31.00;87.70;;;;;;5022547;28;20083;-74
2021/06/20 12:14:25;;;;;;;19.45;9.48;;;31.10;90.00;;;;;;5022983;28;20032;-73
2021/06/20 12:16:52;;;;;;;14.93;8.57;;;31.40;88.60;;;;;;5021556;28;20039;-73
2021/06/20 12:19:20;;;;;;;20.15;8.90;;;31.70;88.30;;;;;;5023051;28;20443;-74
2021/06/20 12:21:48;;;;;;;19.08;9.13;;;32.00;89.00;;;;;;5022584;28;20415;-74
2021/06/20 12:24:14;;;;;;;16.63;7.50;;;32.40;85.80;;;;;;5022845;28;20533;-74
2021/06/20 12:26:49;;;;;;;18.88;7.38;;;31.90;84.10;;;;;;5022212;28;20037;-74
2021/06/20 12:29:15;;;;;;;23.65;7.97;;;32.00;84.50;;;;;;5019056;28;20033;-73
2021/06/20 12:31:41;;;;;;;15.52;7.55;;;31.90;83.70;;;;;;5022180;28;20029;-74
2021/06/20 12:34:08;;;;;;;21.48;8.32;;;32.20;85.10;;;;;;5004829;28;20095;-73
2021/06/20 12:36:36;;;;;;;19.63;8.40;;;32.30;84.60;;;;;;5004981;28;20063;-74